Flight Track Log - Related Links

Times and Time Zones

All times are in EDT time to prevent confusion due to time zone crossing. See the EJM77 flight status page for this flight to view local times or setup timezone preferences in your user account.

Time Position Orientation Groundspeed Altitude Reporting Facility
EDT Latitude Longitude Course Direction KTS MPH feet Rate Location/Type
Thu 11:04:51 PM 32.8167 -96.8333 151° Southeast 188 216 1,400  Level Dallas / Fort Worth TRACON
Thu 11:05:51 PM 32.7667 -96.8000 151° Southeast 213 245 4,100 2,421 Climbing Dallas / Fort Worth TRACON
Thu 11:06:45 PM 32.7667 -96.7500 90° East 260 299 6,000 2,105 Climbing Dallas / Fort Worth TRACON
Thu 11:07:45 PM 32.8333 -96.7333 12° North 288 331 8,100 2,292 Climbing Dallas / Fort Worth TRACON
Thu 11:09:43 PM 32.9842 -96.7622 351° North 292 336 12,800 2,494 Climbing Fort Worth Center
Thu 11:10:43 PM 33.0739 -96.7739 354° North 292 336 15,500 2,200 Climbing Fort Worth Center
Thu 11:11:43 PM 33.1575 -96.7856 353° North 292 336 17,200 1,800 Climbing Fort Worth Center
Thu 11:12:43 PM 33.2494 -96.7975 354° North 319 367 19,100 1,950 Climbing Fort Worth Center
Thu 11:13:43 PM 33.3414 -96.8092 354° North 329 379 21,100 1,850 Climbing Fort Worth Center
Thu 11:14:43 PM 33.4372 -96.7836 13° North 334 384 22,800 1,500 Climbing Fort Worth Center
Thu 11:15:43 PM 33.5119 -96.7283 32° Northeast 334 384 24,100 1,400 Climbing Fort Worth Center
Thu 11:16:43 PM 33.5950 -96.6553 36° Northeast 349 402 25,600 1,500 Climbing Fort Worth Center
Thu 11:17:43 PM 33.6781 -96.5847 35° Northeast 361 415 27,100 1,400 Climbing Fort Worth Center
Thu 11:18:43 PM 33.7653 -96.5114 35° Northeast 375 432 28,400 1,350 Climbing Fort Worth Center
Thu 11:19:43 PM 33.8503 -96.4356 37° Northeast 375 432 29,800 1,300 Climbing Fort Worth Center
Thu 11:20:43 PM 33.9414 -96.3644 33° Northeast 380 437 31,000 1,150 Climbing Fort Worth Center
Thu 11:21:43 PM 34.0328 -96.2881 35° Northeast 385 443 32,100 4,000 Climbing Fort Worth Center
Thu 11:22:43 PM 34.1156 -96.2144 36° Northeast 380 437 39,000 1,400 Climbing Fort Worth Center
Thu 11:23:43 PM 34.2067 -96.1378 35° Northeast 380 437 34,900 -1,600 Descending Fort Worth Center
Thu 11:24:43 PM 34.2997 -96.0611 34° Northeast 385 443 35,800 950 Climbing Fort Worth Center
Thu 11:25:43 PM 34.3864 -95.9867 35° Northeast 385 443 36,800 1,000 Climbing Fort Worth Center
Thu 11:26:43 PM 34.4772 -95.9069 36° Northeast 390 449 37,800 950 Climbing Fort Worth Center
Thu 11:27:43 PM 34.5661 -95.8325 35° Northeast 390 449 38,700 600 Climbing Fort Worth Center
Thu 11:28:43 PM 34.6547 -95.7525 37° Northeast 390 449 39,000 250 Climbing Fort Worth Center
Thu 11:29:43 PM 34.7497 -95.6722 35° Northeast 402 463 39,200 350 Climbing Fort Worth Center
Thu 11:30:43 PM 34.8444 -95.5919 35° Northeast 402 463 39,700 550 Climbing Fort Worth Center
Thu 11:31:43 PM 34.9475 -95.5036 35° Northeast 412 474 40,300 600 Climbing Fort Worth Center
Thu 11:32:43 PM 35.0400 -95.4256 35° Northeast 412 474 40,900 350 Climbing Fort Worth Center
Thu 11:33:43 PM 35.1286 -95.3472 36° Northeast 407 468 41,000 66 Climbing Fort Worth Center
Thu 11:34:14 PM 35.1653 -95.3178 33° Northeast 406 467 41,000  Level Memphis Center
Thu 11:35:14 PM 35.2519 -95.2389 37° Northeast 400 460 41,000  Level Memphis Center
Thu 11:36:14 PM 35.3383 -95.1625 36° Northeast 389 448 41,000  Level Memphis Center
Thu 11:37:14 PM 35.4247 -95.0833 37° Northeast 389 448 41,000  Level Memphis Center
Thu 11:38:14 PM 35.5131 -95.0092 34° Northeast 384 442 41,000  Level Memphis Center
Thu 11:39:14 PM 35.5994 -94.9297 37° Northeast 384 442 41,000  Level Memphis Center
Thu 11:39:48 PM 35.6528 -94.8831 35° Northeast 387 445 41,000  Level Kansas City Center
Thu 11:40:49 PM 35.7403 -94.8061 36° Northeast 388 447 41,000  Level Kansas City Center
Thu 11:41:50 PM 35.8294 -94.7264 36° Northeast 393 452 41,000  Level Kansas City Center
Thu 11:42:52 PM 35.9186 -94.6469 36° Northeast 396 456 41,000  Level Kansas City Center
Thu 11:43:53 PM 36.0064 -94.5683 36° Northeast 394 453 41,000  Level Kansas City Center
Thu 11:44:54 PM 36.1142 -94.4733 35° Northeast 396 456 41,000  Level Kansas City Center
Thu 11:45:55 PM 36.2036 -94.3919 36° Northeast 397 457 41,000  Level Kansas City Center
Thu 11:46:56 PM 36.2933 -94.3111 36° Northeast 399 459 41,000  Level Kansas City Center
Thu 11:47:57 PM 36.3825 -94.2306 36° Northeast 399 459 41,000  Level Kansas City Center
Thu 11:48:58 PM 36.4719 -94.1503 36° Northeast 398 458 41,000  Level Kansas City Center
Thu 11:49:59 PM 36.5600 -94.0692 36° Northeast 397 457 41,000  Level Kansas City Center
Thu 11:51:00 PM 36.6481 -93.9903 36° Northeast 394 453 41,000  Level Kansas City Center
Thu 11:52:01 PM 36.7369 -93.9097 36° Northeast 394 453 41,000  Level Kansas City Center
Thu 11:53:02 PM 36.8261 -93.8269 37° Northeast 396 456 41,000  Level Kansas City Center
Thu 11:54:03 PM 36.9206 -93.7381 37° Northeast 396 456 41,000  Level Kansas City Center
Thu 11:55:04 PM 37.0111 -93.6550 36° Northeast 401 461 41,000  Level Kansas City Center
Thu 11:56:05 PM 37.1011 -93.5719 36° Northeast 402 463 41,000  Level Kansas City Center
Thu 11:57:06 PM 37.1908 -93.4869 37° Northeast 402 463 41,000  Level Kansas City Center
Thu 11:58:07 PM 37.2822 -93.4047 36° Northeast 403 464 41,000  Level Kansas City Center
Thu 11:59:08 PM 37.3753 -93.3194 36° Northeast 410 472 41,000  Level Kansas City Center
Fri 12:00:09 AM 37.4711 -93.2456 31° Northeast 405 466 41,000  Level Kansas City Center
Fri 12:01:10 AM 37.5700 -93.1731 30° Northeast 407 468 41,000  Level Kansas City Center
Fri 12:02:11 AM 37.6681 -93.0989 31° Northeast 408 470 41,000  Level Kansas City Center
Fri 12:03:12 AM 37.7864 -93.0083 31° Northeast 411 473 41,000  Level Kansas City Center
Fri 12:04:13 AM 37.8850 -92.9336 31° Northeast 410 472 41,000  Level Kansas City Center
Fri 12:05:14 AM 37.9844 -92.8592 31° Northeast 410 472 41,000  Level Kansas City Center
Fri 12:06:16 AM 38.0831 -92.7844 31° Northeast 409 471 41,000  Level Kansas City Center
Fri 12:07:17 AM 38.1822 -92.7072 31° Northeast 412 474 41,000  Level Kansas City Center
Fri 12:08:18 AM 38.2833 -92.6297 31° Northeast 413 475 41,000  Level Kansas City Center
Fri 12:09:19 AM 38.3833 -92.5525 31° Northeast 417 480 41,000  Level Kansas City Center
Fri 12:10:20 AM 38.4842 -92.4764 31° Northeast 418 481 41,000  Level Kansas City Center
Fri 12:11:21 AM 38.5850 -92.4017 30° Northeast 419 482 41,000 -49 Level Kansas City Center
Fri 12:12:22 AM 38.6944 -92.3781 10° North 405 466 40,900 -246 Descending Kansas City Center
Fri 12:13:23 AM 38.8011 -92.3897 355° North 389 448 40,500 -344 Descending Kansas City Center
Fri 12:14:24 AM 38.9011 -92.4047 353° North 367 422 40,200 -246 Descending Kansas City Center
Fri 12:15:25 AM 39.0042 -92.4178 354° North 371 427 40,000 -98 Descending Kansas City Center
Fri 12:16:26 AM 39.1103 -92.4308 355° North 380 437 40,000  Level Kansas City Center
Fri 12:17:27 AM 39.2189 -92.4447 354° North 387 445 40,000  Level Kansas City Center
Fri 12:18:28 AM 39.3361 -92.4581 355° North 389 448 40,000 -148 Level Kansas City Center
Fri 12:19:29 AM 39.4436 -92.4728 354° North 391 450 39,700 -393 Descending Kansas City Center
Fri 12:20:30 AM 39.5508 -92.4856 355° North 390 449 39,200 -492 Descending Kansas City Center
Fri 12:21:31 AM 39.6578 -92.4997 354° North 389 448 38,700 -492 Descending Kansas City Center
Fri 12:22:32 AM 39.7656 -92.5131 355° North 391 450 38,200 -344 Descending Kansas City Center
Fri 12:23:33 AM 39.8733 -92.5261 355° North 391 450 38,000 -98 Descending Kansas City Center
Fri 12:24:34 AM 39.9825 -92.5403 354° North 395 455 38,000 -98 Level Kansas City Center
Fri 12:25:35 AM 40.1156 -92.5583 354° North 399 459 37,800 -246 Descending Kansas City Center
Fri 12:26:36 AM 40.2194 -92.5711 355° North 395 455 37,500 -344 Descending Kansas City Center
Fri 12:27:37 AM 40.3331 -92.5861 354° North 398 458 37,100 -344 Descending Kansas City Center
Fri 12:28:38 AM 40.4517 -92.6025 354° North 407 468 36,800 -443 Descending Kansas City Center
Fri 12:29:39 AM 40.5614 -92.6164 355° North 405 466 36,200 -941 Descending Kansas City Center
Fri 12:30:20 AM 40.6344 -92.6261 354° North 392 451 35,200 -1,294 Descending Chicago Center
Fri 12:31:21 AM 40.7403 -92.6400 354° North 386 444 34,000 -590 Descending Chicago Center
Fri 12:32:22 AM 40.8475 -92.6536 355° North 390 449 34,000  Level Chicago Center
Fri 12:33:23 AM 40.9578 -92.6689 354° North 399 459 34,000  Level Chicago Center
Fri 12:34:25 AM 41.0678 -92.6839 354° North 401 461 34,000  Level Chicago Center
Fri 12:35:25 AM 41.1786 -92.6975 355° North 402 463 34,000  Level Chicago Center
Fri 12:36:26 AM 41.3083 -92.7150 354° North 394 453 34,000  Level Chicago Center
Fri 12:37:27 AM 41.4169 -92.7303 354° North 395 455 34,000  Level Chicago Center
Fri 12:38:28 AM 41.5269 -92.7442 355° North 392 451 34,000  Level Chicago Center
Fri 12:39:29 AM 41.6319 -92.7583 354° North 392 451 34,000  Level Chicago Center
Fri 12:40:30 AM 41.7383 -92.7714 355° North 387 445 34,000  Level Chicago Center
Fri 12:41:31 AM 41.8478 -92.7850 355° North 388 447 34,000  Level Chicago Center
Fri 12:42:32 AM 41.9544 -92.8011 354° North 387 445 34,000  Level Chicago Center
Fri 12:43:33 AM 42.0617 -92.8158 354° North 389 448 34,000  Level Chicago Center
Fri 12:44:34 AM 42.1697 -92.8319 354° North 392 451 34,000  Level Chicago Center
Fri 12:45:35 AM 42.2778 -92.8458 355° North 392 451 34,000  Level Chicago Center
Fri 12:46:36 AM 42.4083 -92.8644 354° North 394 453 34,000  Level Chicago Center
Fri 12:47:36 AM 42.5172 -92.8797 354° North 395 455 34,000  Level Chicago Center
Fri 12:48:37 AM 42.6264 -92.8944 354° North 395 455 34,000  Level Chicago Center
Fri 12:49:38 AM 42.7344 -92.9097 354° North 393 452 34,000  Level Chicago Center
Fri 12:50:39 AM 42.8428 -92.9244 354° North 392 451 34,000 -98 Level Chicago Center
Fri 12:51:40 AM 42.9489 -92.9411 353° North 389 448 33,800 -545 Descending Chicago Center
Fri 12:52:40 AM 43.0544 -92.9575 354° North 386 444 32,900 -992 Descending Chicago Center
Fri 12:53:41 AM 43.1642 -92.9706 355° North 393 452 31,800 -1,033 Descending Chicago Center
Fri 12:54:42 AM 43.2731 -92.9872 354° North 396 456 30,800 -1,033 Descending Chicago Center
Fri 12:55:43 AM 43.3836 -93.0025 354° North 400 460 29,700 -1,140 Descending Chicago Center
Fri 12:56:43 AM 43.4944 -93.0189 354° North 402 463 28,500 -1,537 Descending Chicago Center
Fri 12:57:44 AM 43.6039 -93.0353 354° North 399 459 26,600 -1,878 Descending Chicago Center
Fri 12:58:54 AM 43.7361 -93.0561 354° North 402 463 24,400 -1,786 Descending Minneapolis Center
Fri 12:59:55 AM 43.8572 -93.0689 356° North 389 448 22,700 -1,623 Descending Minneapolis Center
Fri 01:00:56 AM 43.9639 -93.0678 360° North 384 442 21,100 -1,339 Descending Minneapolis Center
Fri 01:01:56 AM 44.0672 -93.0675 360° North 375 432 20,000 -1,339 Descending Minneapolis Center
Fri 01:02:57 AM 44.1683 -93.0683 360° North 366 421 18,400 -2,361 Descending Minneapolis Center
Fri 01:03:58 AM 44.2672 -93.0633 North 359 413 15,200 -3,049 Descending Minneapolis Center
Fri 01:04:59 AM 44.3611 -93.0417 North 347 399 12,200 -2,281 Descending Minneapolis Center
Fri 01:05:59 AM 44.4397 -93.0250 North 287 330 10,600 -1,934 Descending Minneapolis Center
Fri 01:07:00 AM 44.5131 -93.0133 North 269 310 8,300 -2,508 Descending Minneapolis Center
Fri 01:08:01 AM 44.5964 -93.0292 352° North 253 291 5,500 -2,115 Descending Minneapolis Center
Fri 01:09:02 AM 44.6617 -93.0408 353° North 241 277 4,000 -744 Descending Minneapolis Center
Fri 01:10:02 AM 44.7156 -93.0492 354° North 200 230 4,000 -397 Level Minneapolis Center
Fri 01:11:03 AM 44.7681 -93.0633 349° North 195 224 3,200 -590 Descending Minneapolis Center
Fri 01:12:04 AM 44.8122 -93.0867 339° North 170 196 2,800 -639 Descending Minneapolis Center
Fri 01:13:05 AM 44.8417 -93.1281 315° West 152 175 1,900 -694 Descending Minneapolis Center
Fri 01:14:05 AM 44.8594 -93.1689 302° West 125 144 1,400 -500 Descending Minneapolis Center
Fri 01:16:00 AM 44.8667 -93.2167 337° Northwest  Level FlightAware Approximate
Fri 01:23:00 AM 44.8820 -93.2218 337° Northwest  Level Estimated

Login

Don't have an account? Register now (free) for customized features, flight alerts, and more!